Terminal Aerodrome Forecast
Issued by NWS Louisville, KY

Home | Current Version | Previous Version | Text Only | Print | Product List | Glossary On
Versions: 1 2 3 4 5 6 7 8 9 10 11 12 13
000
FTUS43 KLMK 131723
TAFBWG
TAF
KBWG 131723Z 1318/1418 20015G25KT P6SM SKC
     FM132100 22017G28KT P6SM FEW250
     FM140300 24009G19KT P6SM SCT050
     FM140600 28009KT P6SM SCT035
     FM141100 VRB04KT P6SM SCT035=

USA.gov is the U.S. government's official web portal to all federal, state and local government web resources and services.